sensor_id;sensor_type;location;lat;lon;timestamp;temperature;humidity
48988;DHT22;34799;51.440;-2.534;2023-07-30T00:00:15;16.60;99.90
48988;DHT22;34799;51.440;-2.534;2023-07-30T00:02:42;16.50;99.90
48988;DHT22;34799;51.440;-2.534;2023-07-30T00:05:10;16.40;99.90
48988;DHT22;34799;51.440;-2.534;2023-07-30T00:07:37;16.30;99.90
48988;DHT22;34799;51.440;-2.534;2023-07-30T00:10:05;16.30;99.90
48988;DHT22;34799;51.440;-2.534;2023-07-30T00:12:32;16.30;99.90
48988;DHT22;34799;51.440;-2.534;2023-07-30T00:15:00;16.30;99.90
48988;DHT22;34799;51.440;-2.534;2023-07-30T00:17:27;16.30;99.90
48988;DHT22;34799;51.440;-2.534;2023-07-30T00:19:54;16.30;99.90
48988;DHT22;34799;51.440;-2.534;2023-07-30T00:22:22;16.30;99.90
48988;DHT22;34799;51.440;-2.534;2023-07-30T00:24:50;16.20;99.90
48988;DHT22;34799;51.440;-2.534;2023-07-30T00:27:17;16.30;99.90
48988;DHT22;34799;51.440;-2.534;2023-07-30T00:29:44;16.20;99.90
48988;DHT22;34799;51.440;-2.534;2023-07-30T00:32:11;16.10;99.90
48988;DHT22;34799;51.440;-2.534;2023-07-30T00:34:43;16.10;99.90
48988;DHT22;34799;51.440;-2.534;2023-07-30T00:37:11;16.20;99.90
48988;DHT22;34799;51.440;-2.534;2023-07-30T00:39:38;16.10;99.90
48988;DHT22;34799;51.440;-2.534;2023-07-30T00:42:05;16.10;99.90
48988;DHT22;34799;51.440;-2.534;2023-07-30T00:44:33;16.10;99.90
48988;DHT22;34799;51.440;-2.534;2023-07-30T00:47:00;16.10;99.90
48988;DHT22;34799;51.440;-2.534;2023-07-30T00:49:27;16.00;99.90
48988;DHT22;34799;51.440;-2.534;2023-07-30T00:51:55;16.00;99.90
48988;DHT22;34799;51.440;-2.534;2023-07-30T00:54:25;16.00;99.90
48988;DHT22;34799;51.440;-2.534;2023-07-30T00:56:53;16.00;99.90
48988;DHT22;34799;51.440;-2.534;2023-07-30T00:59:22;16.00;99.90
48988;DHT22;34799;51.440;-2.534;2023-07-30T01:01:51;16.00;99.90
48988;DHT22;34799;51.440;-2.534;2023-07-30T01:04:19;16.00;99.90
48988;DHT22;34799;51.440;-2.534;2023-07-30T01:06:46;15.90;99.90
48988;DHT22;34799;51.440;-2.534;2023-07-30T01:09:13;15.90;99.90
48988;DHT22;34799;51.440;-2.534;2023-07-30T01:11:41;15.90;99.90
48988;DHT22;34799;51.440;-2.534;2023-07-30T01:14:09;15.90;99.90
48988;DHT22;34799;51.440;-2.534;2023-07-30T01:16:37;15.90;99.90
48988;DHT22;34799;51.440;-2.534;2023-07-30T01:19:06;16.00;99.90
48988;DHT22;34799;51.440;-2.534;2023-07-30T01:21:36;15.90;99.90
48988;DHT22;34799;51.440;-2.534;2023-07-30T01:24:05;16.10;99.90
48988;DHT22;34799;51.440;-2.534;2023-07-30T01:26:46;16.00;99.90
48988;DHT22;34799;51.440;-2.534;2023-07-30T01:29:53;16.00;99.90
48988;DHT22;34799;51.440;-2.534;2023-07-30T01:32:26;16.10;99.90
48988;DHT22;34799;51.440;-2.534;2023-07-30T01:34:56;16.10;99.90
48988;DHT22;34799;51.440;-2.534;2023-07-30T01:37:26;16.10;99.90
48988;DHT22;34799;51.440;-2.534;2023-07-30T01:39:55;16.20;99.90
48988;DHT22;34799;51.440;-2.534;2023-07-30T01:42:28;16.10;99.90
48988;DHT22;34799;51.440;-2.534;2023-07-30T01:44:58;16.10;99.90
48988;DHT22;34799;51.440;-2.534;2023-07-30T01:47:26;16.20;99.90
48988;DHT22;34799;51.440;-2.534;2023-07-30T01:49:53;16.20;99.90
48988;DHT22;34799;51.440;-2.534;2023-07-30T01:52:21;16.20;99.90
48988;DHT22;34799;51.440;-2.534;2023-07-30T01:54:48;16.20;99.90
48988;DHT22;34799;51.440;-2.534;2023-07-30T01:57:15;16.20;99.90
48988;DHT22;34799;51.440;-2.534;2023-07-30T01:59:43;16.20;99.90
48988;DHT22;34799;51.440;-2.534;2023-07-30T02:02:10;16.30;99.90
48988;DHT22;34799;51.440;-2.534;2023-07-30T02:04:37;16.20;99.90
48988;DHT22;34799;51.440;-2.534;2023-07-30T02:07:05;16.20;99.90
48988;DHT22;34799;51.440;-2.534;2023-07-30T02:09:32;16.10;99.90
48988;DHT22;34799;51.440;-2.534;2023-07-30T02:16:13;16.10;99.90
48988;DHT22;34799;51.440;-2.534;2023-07-30T02:18:50;16.10;99.90
48988;DHT22;34799;51.440;-2.534;2023-07-30T02:21:18;16.10;99.90
48988;DHT22;34799;51.440;-2.534;2023-07-30T02:23:48;15.50;99.90
48988;DHT22;34799;51.440;-2.534;2023-07-30T02:26:18;16.00;99.90
48988;DHT22;34799;51.440;-2.534;2023-07-30T02:28:46;15.90;99.90
48988;DHT22;34799;51.440;-2.534;2023-07-30T02:31:16;15.90;99.90
48988;DHT22;34799;51.440;-2.534;2023-07-30T02:33:43;16.30;99.90
48988;DHT22;34799;51.440;-2.534;2023-07-30T02:36:11;16.00;99.90
48988;DHT22;34799;51.440;-2.534;2023-07-30T02:38:40;15.70;99.90
48988;DHT22;34799;51.440;-2.534;2023-07-30T02:41:07;16.00;99.90
48988;DHT22;34799;51.440;-2.534;2023-07-30T02:43:37;16.00;99.90
48988;DHT22;34799;51.440;-2.534;2023-07-30T02:46:09;16.00;99.90
48988;DHT22;34799;51.440;-2.534;2023-07-30T02:48:38;16.30;99.90
48988;DHT22;34799;51.440;-2.534;2023-07-30T02:51:09;15.90;99.90
48988;DHT22;34799;51.440;-2.534;2023-07-30T02:53:43;16.20;99.90
48988;DHT22;34799;51.440;-2.534;2023-07-30T02:56:15;16.20;99.90
48988;DHT22;34799;51.440;-2.534;2023-07-30T02:58:52;16.20;99.90
48988;DHT22;34799;51.440;-2.534;2023-07-30T03:01:23;16.10;99.90
48988;DHT22;34799;51.440;-2.534;2023-07-30T03:03:54;16.20;99.90
48988;DHT22;34799;51.440;-2.534;2023-07-30T03:06:22;16.20;99.90
48988;DHT22;34799;51.440;-2.534;2023-07-30T03:08:50;16.10;99.90
48988;DHT22;34799;51.440;-2.534;2023-07-30T03:11:22;15.80;99.90
48988;DHT22;34799;51.440;-2.534;2023-07-30T03:13:57;16.20;99.90
48988;DHT22;34799;51.440;-2.534;2023-07-30T03:16:30;16.30;99.90
48988;DHT22;34799;51.440;-2.534;2023-07-30T03:19:00;16.30;99.90
48988;DHT22;34799;51.440;-2.534;2023-07-30T03:21:34;16.30;99.90
48988;DHT22;34799;51.440;-2.534;2023-07-30T03:24:03;16.20;99.90
48988;DHT22;34799;51.440;-2.534;2023-07-30T03:26:31;16.20;99.90
48988;DHT22;34799;51.440;-2.534;2023-07-30T03:29:04;16.20;99.90
48988;DHT22;34799;51.440;-2.534;2023-07-30T03:31:57;16.30;99.90
48988;DHT22;34799;51.440;-2.534;2023-07-30T03:34:27;16.00;99.90
48988;DHT22;34799;51.440;-2.534;2023-07-30T03:36:55;16.10;99.90
48988;DHT22;34799;51.440;-2.534;2023-07-30T03:39:26;16.00;99.90
48988;DHT22;34799;51.440;-2.534;2023-07-30T03:41:54;15.90;99.90
48988;DHT22;34799;51.440;-2.534;2023-07-30T03:44:22;16.00;99.90
48988;DHT22;34799;51.440;-2.534;2023-07-30T03:46:55;16.00;99.90
48988;DHT22;34799;51.440;-2.534;2023-07-30T03:49:23;15.90;99.90
48988;DHT22;34799;51.440;-2.534;2023-07-30T03:51:55;16.20;99.90
48988;DHT22;34799;51.440;-2.534;2023-07-30T03:54:26;15.70;99.90
48988;DHT22;34799;51.440;-2.534;2023-07-30T03:56:54;16.20;99.90
48988;DHT22;34799;51.440;-2.534;2023-07-30T03:59:23;15.90;99.90
48988;DHT22;34799;51.440;-2.534;2023-07-30T04:01:50;15.90;99.90
48988;DHT22;34799;51.440;-2.534;2023-07-30T04:04:20;16.10;99.90
48988;DHT22;34799;51.440;-2.534;2023-07-30T04:06:50;15.80;99.90
48988;DHT22;34799;51.440;-2.534;2023-07-30T04:09:18;16.00;99.90
48988;DHT22;34799;51.440;-2.534;2023-07-30T04:11:46;17.00;99.90
48988;DHT22;34799;51.440;-2.534;2023-07-30T04:14:15;16.00;99.90
48988;DHT22;34799;51.440;-2.534;2023-07-30T04:16:45;16.10;99.90
48988;DHT22;34799;51.440;-2.534;2023-07-30T04:19:16;16.30;99.90
48988;DHT22;34799;51.440;-2.534;2023-07-30T04:21:47;16.30;99.90
48988;DHT22;34799;51.440;-2.534;2023-07-30T04:24:14;15.30;99.90
48988;DHT22;34799;51.440;-2.534;2023-07-30T04:26:42;16.10;99.90
48988;DHT22;34799;51.440;-2.534;2023-07-30T04:29:10;16.00;99.90
48988;DHT22;34799;51.440;-2.534;2023-07-30T04:31:38;16.00;99.90
48988;DHT22;34799;51.440;-2.534;2023-07-30T04:34:06;16.30;99.90
48988;DHT22;34799;51.440;-2.534;2023-07-30T04:36:37;16.00;99.90
48988;DHT22;34799;51.440;-2.534;2023-07-30T04:39:06;15.00;99.90
48988;DHT22;34799;51.440;-2.534;2023-07-30T04:41:35;15.90;99.90
48988;DHT22;34799;51.440;-2.534;2023-07-30T04:44:13;16.20;99.90
48988;DHT22;34799;51.440;-2.534;2023-07-30T04:46:45;16.10;99.90
48988;DHT22;34799;51.440;-2.534;2023-07-30T04:49:13;14.80;99.90
48988;DHT22;34799;51.440;-2.534;2023-07-30T04:51:41;14.90;99.90
48988;DHT22;34799;51.440;-2.534;2023-07-30T04:54:12;16.00;99.90
48988;DHT22;34799;51.440;-2.534;2023-07-30T04:56:40;16.10;99.90
48988;DHT22;34799;51.440;-2.534;2023-07-30T04:59:12;16.10;99.90
48988;DHT22;34799;51.440;-2.534;2023-07-30T05:01:45;16.00;99.90
48988;DHT22;34799;51.440;-2.534;2023-07-30T05:04:17;13.90;99.90
48988;DHT22;34799;51.440;-2.534;2023-07-30T05:06:52;16.00;99.90
48988;DHT22;34799;51.440;-2.534;2023-07-30T05:09:22;15.70;99.90
48988;DHT22;34799;51.440;-2.534;2023-07-30T05:11:50;15.80;99.90
48988;DHT22;34799;51.440;-2.534;2023-07-30T05:14:18;15.80;99.90
48988;DHT22;34799;51.440;-2.534;2023-07-30T05:16:46;15.80;99.90
48988;DHT22;34799;51.440;-2.534;2023-07-30T05:19:17;15.90;99.90
48988;DHT22;34799;51.440;-2.534;2023-07-30T05:21:46;15.90;99.90
48988;DHT22;34799;51.440;-2.534;2023-07-30T05:24:15;16.00;99.90
48988;DHT22;34799;51.440;-2.534;2023-07-30T05:26:46;14.40;99.90
48988;DHT22;34799;51.440;-2.534;2023-07-30T05:29:17;15.90;99.90
48988;DHT22;34799;51.440;-2.534;2023-07-30T05:31:44;15.90;99.90
48988;DHT22;34799;51.440;-2.534;2023-07-30T05:34:12;16.00;99.90
48988;DHT22;34799;51.440;-2.534;2023-07-30T05:36:39;15.90;99.90
48988;DHT22;34799;51.440;-2.534;2023-07-30T05:39:07;16.20;99.90
48988;DHT22;34799;51.440;-2.534;2023-07-30T05:41:35;16.10;99.90
48988;DHT22;34799;51.440;-2.534;2023-07-30T05:44:03;16.00;99.90
48988;DHT22;34799;51.440;-2.534;2023-07-30T05:46:30;16.00;99.90
48988;DHT22;34799;51.440;-2.534;2023-07-30T05:48:58;16.00;99.90
48988;DHT22;34799;51.440;-2.534;2023-07-30T05:51:26;16.20;99.90
48988;DHT22;34799;51.440;-2.534;2023-07-30T05:53:57;16.00;99.90
48988;DHT22;34799;51.440;-2.534;2023-07-30T05:56:27;16.10;99.90
48988;DHT22;34799;51.440;-2.534;2023-07-30T05:58:55;16.10;99.90
48988;DHT22;34799;51.440;-2.534;2023-07-30T06:01:23;16.20;99.90
48988;DHT22;34799;51.440;-2.534;2023-07-30T06:03:58;16.20;99.90
48988;DHT22;34799;51.440;-2.534;2023-07-30T06:06:30;16.10;99.90
48988;DHT22;34799;51.440;-2.534;2023-07-30T06:09:02;16.10;99.90
48988;DHT22;34799;51.440;-2.534;2023-07-30T06:11:32;16.10;99.90
48988;DHT22;34799;51.440;-2.534;2023-07-30T06:14:00;16.30;99.90
48988;DHT22;34799;51.440;-2.534;2023-07-30T06:16:28;16.10;99.90
48988;DHT22;34799;51.440;-2.534;2023-07-30T06:18:57;16.00;99.90
48988;DHT22;34799;51.440;-2.534;2023-07-30T06:21:26;16.10;99.90
48988;DHT22;34799;51.440;-2.534;2023-07-30T06:23:57;16.20;99.90
48988;DHT22;34799;51.440;-2.534;2023-07-30T06:26:25;16.30;99.90
48988;DHT22;34799;51.440;-2.534;2023-07-30T06:28:53;16.30;99.90
48988;DHT22;34799;51.440;-2.534;2023-07-30T06:31:21;16.30;99.90
48988;DHT22;34799;51.440;-2.534;2023-07-30T06:33:49;16.40;99.90
48988;DHT22;34799;51.440;-2.534;2023-07-30T06:36:17;16.00;99.90
48988;DHT22;34799;51.440;-2.534;2023-07-30T06:38:46;16.60;99.90
48988;DHT22;34799;51.440;-2.534;2023-07-30T06:41:15;15.70;99.90
48988;DHT22;34799;51.440;-2.534;2023-07-30T06:43:44;16.50;99.90
48988;DHT22;34799;51.440;-2.534;2023-07-30T06:46:12;16.50;99.90
48988;DHT22;34799;51.440;-2.534;2023-07-30T06:48:39;16.60;99.90
48988;DHT22;34799;51.440;-2.534;2023-07-30T06:51:10;15.90;99.90
48988;DHT22;34799;51.440;-2.534;2023-07-30T06:53:42;16.80;99.90
48988;DHT22;34799;51.440;-2.534;2023-07-30T06:56:15;16.80;99.90
48988;DHT22;34799;51.440;-2.534;2023-07-30T06:58:43;16.90;99.90
48988;DHT22;34799;51.440;-2.534;2023-07-30T07:01:15;17.00;99.90
48988;DHT22;34799;51.440;-2.534;2023-07-30T07:03:47;18.50;99.90
48988;DHT22;34799;51.440;-2.534;2023-07-30T07:06:16;16.80;99.90
48988;DHT22;34799;51.440;-2.534;2023-07-30T07:08:45;16.80;99.90
48988;DHT22;34799;51.440;-2.534;2023-07-30T07:11:15;16.80;99.90
48988;DHT22;34799;51.440;-2.534;2023-07-30T07:13:43;16.80;99.90
48988;DHT22;34799;51.440;-2.534;2023-07-30T07:16:14;16.90;99.90
48988;DHT22;34799;51.440;-2.534;2023-07-30T07:18:49;17.10;99.90
48988;DHT22;34799;51.440;-2.534;2023-07-30T07:21:17;17.10;99.90
48988;DHT22;34799;51.440;-2.534;2023-07-30T07:23:46;17.10;99.90
48988;DHT22;34799;51.440;-2.534;2023-07-30T07:26:24;17.00;99.90
48988;DHT22;34799;51.440;-2.534;2023-07-30T07:28:56;17.20;99.90
48988;DHT22;34799;51.440;-2.534;2023-07-30T07:31:24;16.00;99.90
48988;DHT22;34799;51.440;-2.534;2023-07-30T07:34:00;17.10;99.90
48988;DHT22;34799;51.440;-2.534;2023-07-30T07:36:32;17.00;99.90
48988;DHT22;34799;51.440;-2.534;2023-07-30T07:39:00;17.00;99.90
48988;DHT22;34799;51.440;-2.534;2023-07-30T07:41:28;17.10;99.90
48988;DHT22;34799;51.440;-2.534;2023-07-30T07:44:05;17.30;99.90
48988;DHT22;34799;51.440;-2.534;2023-07-30T07:46:33;17.40;99.90
48988;DHT22;34799;51.440;-2.534;2023-07-30T07:49:03;17.40;99.90
48988;DHT22;34799;51.440;-2.534;2023-07-30T07:51:34;17.70;99.90
48988;DHT22;34799;51.440;-2.534;2023-07-30T07:54:12;17.80;99.90
48988;DHT22;34799;51.440;-2.534;2023-07-30T07:56:47;17.70;99.90
48988;DHT22;34799;51.440;-2.534;2023-07-30T07:59:16;18.40;99.90
48988;DHT22;34799;51.440;-2.534;2023-07-30T08:01:54;18.00;99.90
48988;DHT22;34799;51.440;-2.534;2023-07-30T08:04:22;17.60;99.90
48988;DHT22;34799;51.440;-2.534;2023-07-30T08:08:10;17.90;99.90
48988;DHT22;34799;51.440;-2.534;2023-07-30T08:11:23;17.90;99.90
48988;DHT22;34799;51.440;-2.534;2023-07-30T08:13:51;17.70;99.90
48988;DHT22;34799;51.440;-2.534;2023-07-30T08:17:09;17.80;99.90
48988;DHT22;34799;51.440;-2.534;2023-07-30T08:19:45;17.80;99.90
48988;DHT22;34799;51.440;-2.534;2023-07-30T08:22:18;19.30;99.90
48988;DHT22;34799;51.440;-2.534;2023-07-30T08:25:07;17.80;99.90
48988;DHT22;34799;51.440;-2.534;2023-07-30T08:27:38;17.80;99.90
48988;DHT22;34799;51.440;-2.534;2023-07-30T08:31:10;19.60;99.90
48988;DHT22;34799;51.440;-2.534;2023-07-30T08:36:55;17.90;99.90
48988;DHT22;34799;51.440;-2.534;2023-07-30T08:39:22;18.00;99.90
48988;DHT22;34799;51.440;-2.534;2023-07-30T08:41:49;18.00;99.90
48988;DHT22;34799;51.440;-2.534;2023-07-30T08:44:16;18.00;99.90
48988;DHT22;34799;51.440;-2.534;2023-07-30T08:46:43;18.00;99.90
48988;DHT22;34799;51.440;-2.534;2023-07-30T08:49:10;18.10;99.90
48988;DHT22;34799;51.440;-2.534;2023-07-30T08:51:39;18.10;99.90
48988;DHT22;34799;51.440;-2.534;2023-07-30T08:54:10;18.10;99.90
48988;DHT22;34799;51.440;-2.534;2023-07-30T08:56:38;18.10;99.90
48988;DHT22;34799;51.440;-2.534;2023-07-30T08:59:05;18.10;99.90
48988;DHT22;34799;51.440;-2.534;2023-07-30T09:01:37;18.20;99.90
48988;DHT22;34799;51.440;-2.534;2023-07-30T09:04:06;18.30;99.90
48988;DHT22;34799;51.440;-2.534;2023-07-30T09:06:33;18.30;99.90
48988;DHT22;34799;51.440;-2.534;2023-07-30T09:09:01;18.30;99.90
48988;DHT22;34799;51.440;-2.534;2023-07-30T09:11:30;18.30;99.90
48988;DHT22;34799;51.440;-2.534;2023-07-30T09:14:01;18.20;99.90
48988;DHT22;34799;51.440;-2.534;2023-07-30T09:16:29;18.10;99.90
48988;DHT22;34799;51.440;-2.534;2023-07-30T09:18:57;18.10;99.90
48988;DHT22;34799;51.440;-2.534;2023-07-30T09:21:32;18.00;99.90
48988;DHT22;34799;51.440;-2.534;2023-07-30T09:24:03;17.90;99.90
48988;DHT22;34799;51.440;-2.534;2023-07-30T09:26:44;17.90;99.90
48988;DHT22;34799;51.440;-2.534;2023-07-30T09:29:11;17.90;99.90
48988;DHT22;34799;51.440;-2.534;2023-07-30T09:31:49;18.10;99.90
48988;DHT22;34799;51.440;-2.534;2023-07-30T09:34:21;18.30;99.90
48988;DHT22;34799;51.440;-2.534;2023-07-30T09:36:51;18.40;99.90
48988;DHT22;34799;51.440;-2.534;2023-07-30T09:39:24;18.40;99.90
48988;DHT22;34799;51.440;-2.534;2023-07-30T09:41:58;18.50;99.90
48988;DHT22;34799;51.440;-2.534;2023-07-30T09:44:28;18.60;99.90
48988;DHT22;34799;51.440;-2.534;2023-07-30T09:46:55;18.70;99.90
48988;DHT22;34799;51.440;-2.534;2023-07-30T09:49:23;18.80;99.90
48988;DHT22;34799;51.440;-2.534;2023-07-30T09:51:52;18.90;99.90
48988;DHT22;34799;51.440;-2.534;2023-07-30T09:54:20;18.90;99.90
48988;DHT22;34799;51.440;-2.534;2023-07-30T09:56:47;18.90;99.90
48988;DHT22;34799;51.440;-2.534;2023-07-30T09:59:15;18.90;99.90
48988;DHT22;34799;51.440;-2.534;2023-07-30T10:01:46;19.00;99.90
48988;DHT22;34799;51.440;-2.534;2023-07-30T10:04:21;19.00;99.90
48988;DHT22;34799;51.440;-2.534;2023-07-30T10:06:55;19.00;99.90
48988;DHT22;34799;51.440;-2.534;2023-07-30T10:09:26;19.10;99.90
48988;DHT22;34799;51.440;-2.534;2023-07-30T10:11:55;19.10;99.90
48988;DHT22;34799;51.440;-2.534;2023-07-30T10:14:25;19.20;99.90
48988;DHT22;34799;51.440;-2.534;2023-07-30T10:16:58;19.20;99.90
48988;DHT22;34799;51.440;-2.534;2023-07-30T10:19:28;19.30;99.90
48988;DHT22;34799;51.440;-2.534;2023-07-30T10:22:20;19.40;99.90
48988;DHT22;34799;51.440;-2.534;2023-07-30T10:25:02;19.40;99.90
48988;DHT22;34799;51.440;-2.534;2023-07-30T10:27:40;19.40;99.90
48988;DHT22;34799;51.440;-2.534;2023-07-30T10:30:11;19.40;99.90
48988;DHT22;34799;51.440;-2.534;2023-07-30T10:32:42;19.50;99.90
48988;DHT22;34799;51.440;-2.534;2023-07-30T10:35:09;19.70;99.90
48988;DHT22;34799;51.440;-2.534;2023-07-30T10:37:56;19.80;99.90
48988;DHT22;34799;51.440;-2.534;2023-07-30T10:40:23;19.80;99.90
48988;DHT22;34799;51.440;-2.534;2023-07-30T10:42:51;19.80;99.90
48988;DHT22;34799;51.440;-2.534;2023-07-30T10:45:18;19.80;99.90
48988;DHT22;34799;51.440;-2.534;2023-07-30T10:47:45;19.80;99.90
48988;DHT22;34799;51.440;-2.534;2023-07-30T10:50:13;19.70;99.90
48988;DHT22;34799;51.440;-2.534;2023-07-30T10:52:41;19.60;99.90
48988;DHT22;34799;51.440;-2.534;2023-07-30T10:55:08;19.60;99.90
48988;DHT22;34799;51.440;-2.534;2023-07-30T10:57:36;19.40;99.90
48988;DHT22;34799;51.440;-2.534;2023-07-30T11:00:06;19.30;99.90
48988;DHT22;34799;51.440;-2.534;2023-07-30T11:02:33;19.20;99.90
48988;DHT22;34799;51.440;-2.534;2023-07-30T11:05:12;19.20;99.90
48988;DHT22;34799;51.440;-2.534;2023-07-30T11:07:39;19.20;99.90
48988;DHT22;34799;51.440;-2.534;2023-07-30T11:10:06;19.20;99.90
48988;DHT22;34799;51.440;-2.534;2023-07-30T11:12:33;19.10;99.90
48988;DHT22;34799;51.440;-2.534;2023-07-30T11:15:04;19.00;99.90
48988;DHT22;34799;51.440;-2.534;2023-07-30T11:17:32;19.00;99.90
48988;DHT22;34799;51.440;-2.534;2023-07-30T11:20:00;18.90;99.90
48988;DHT22;34799;51.440;-2.534;2023-07-30T11:22:31;18.90;99.90
48988;DHT22;34799;51.440;-2.534;2023-07-30T11:24:59;18.80;99.90
48988;DHT22;34799;51.440;-2.534;2023-07-30T11:27:29;18.70;99.90
48988;DHT22;34799;51.440;-2.534;2023-07-30T11:29:57;18.70;99.90
48988;DHT22;34799;51.440;-2.534;2023-07-30T11:32:27;18.70;99.90
48988;DHT22;34799;51.440;-2.534;2023-07-30T11:34:56;18.70;99.90
48988;DHT22;34799;51.440;-2.534;2023-07-30T11:37:24;18.70;99.90
48988;DHT22;34799;51.440;-2.534;2023-07-30T11:39:51;18.60;99.90
48988;DHT22;34799;51.440;-2.534;2023-07-30T11:42:19;18.60;99.90
48988;DHT22;34799;51.440;-2.534;2023-07-30T11:44:46;18.60;99.90
48988;DHT22;34799;51.440;-2.534;2023-07-30T11:47:23;18.60;99.90
48988;DHT22;34799;51.440;-2.534;2023-07-30T11:49:59;18.60;99.90
48988;DHT22;34799;51.440;-2.534;2023-07-30T11:52:26;18.70;99.90
48988;DHT22;34799;51.440;-2.534;2023-07-30T11:55:03;18.60;99.90
48988;DHT22;34799;51.440;-2.534;2023-07-30T11:57:37;18.60;99.90
48988;DHT22;34799;51.440;-2.534;2023-07-30T12:00:06;18.60;99.90
48988;DHT22;34799;51.440;-2.534;2023-07-30T12:02:38;18.60;99.90
48988;DHT22;34799;51.440;-2.534;2023-07-30T12:05:10;18.60;99.90
48988;DHT22;34799;51.440;-2.534;2023-07-30T12:07:41;18.60;99.90
48988;DHT22;34799;51.440;-2.534;2023-07-30T12:10:10;18.50;99.90
48988;DHT22;34799;51.440;-2.534;2023-07-30T12:12:45;18.50;99.90
48988;DHT22;34799;51.440;-2.534;2023-07-30T12:15:13;18.50;99.90
48988;DHT22;34799;51.440;-2.534;2023-07-30T12:17:40;18.50;99.90
48988;DHT22;34799;51.440;-2.534;2023-07-30T12:20:07;18.50;99.90
48988;DHT22;34799;51.440;-2.534;2023-07-30T12:22:35;18.50;99.90
48988;DHT22;34799;51.440;-2.534;2023-07-30T12:25:02;18.50;99.90
48988;DHT22;34799;51.440;-2.534;2023-07-30T12:27:30;18.50;99.90
48988;DHT22;34799;51.440;-2.534;2023-07-30T12:29:57;18.50;99.90
48988;DHT22;34799;51.440;-2.534;2023-07-30T12:32:24;18.40;99.90
48988;DHT22;34799;51.440;-2.534;2023-07-30T12:34:56;18.40;99.90
48988;DHT22;34799;51.440;-2.534;2023-07-30T12:37:23;18.30;99.90
48988;DHT22;34799;51.440;-2.534;2023-07-30T12:39:51;18.30;99.90
48988;DHT22;34799;51.440;-2.534;2023-07-30T12:42:18;18.20;99.90
48988;DHT22;34799;51.440;-2.534;2023-07-30T12:44:45;18.20;99.90
48988;DHT22;34799;51.440;-2.534;2023-07-30T12:47:13;18.10;99.90
48988;DHT22;34799;51.440;-2.534;2023-07-30T12:49:41;18.10;99.90
48988;DHT22;34799;51.440;-2.534;2023-07-30T12:52:08;18.10;99.90
48988;DHT22;34799;51.440;-2.534;2023-07-30T12:54:35;18.00;99.90
48988;DHT22;34799;51.440;-2.534;2023-07-30T12:57:03;18.00;99.90
48988;DHT22;34799;51.440;-2.534;2023-07-30T12:59:30;18.00;99.90
48988;DHT22;34799;51.440;-2.534;2023-07-30T13:01:58;18.00;99.90
48988;DHT22;34799;51.440;-2.534;2023-07-30T13:04:26;18.00;99.90
48988;DHT22;34799;51.440;-2.534;2023-07-30T13:06:54;17.90;99.90
48988;DHT22;34799;51.440;-2.534;2023-07-30T13:09:21;17.90;99.90
48988;DHT22;34799;51.440;-2.534;2023-07-30T13:11:48;17.90;99.90
48988;DHT22;34799;51.440;-2.534;2023-07-30T13:14:15;17.80;99.90
48988;DHT22;34799;51.440;-2.534;2023-07-30T13:16:42;17.80;99.90
48988;DHT22;34799;51.440;-2.534;2023-07-30T13:19:10;17.90;99.90
48988;DHT22;34799;51.440;-2.534;2023-07-30T13:21:37;17.90;99.90
48988;DHT22;34799;51.440;-2.534;2023-07-30T13:24:05;18.00;99.90
48988;DHT22;34799;51.440;-2.534;2023-07-30T13:26:32;18.00;99.90
48988;DHT22;34799;51.440;-2.534;2023-07-30T13:28:59;18.00;99.90
48988;DHT22;34799;51.440;-2.534;2023-07-30T13:31:27;18.00;99.90
48988;DHT22;34799;51.440;-2.534;2023-07-30T13:33:54;18.10;99.90
48988;DHT22;34799;51.440;-2.534;2023-07-30T13:36:21;18.00;99.90
48988;DHT22;34799;51.440;-2.534;2023-07-30T13:38:49;17.90;99.90
48988;DHT22;34799;51.440;-2.534;2023-07-30T13:41:16;17.80;99.90
48988;DHT22;34799;51.440;-2.534;2023-07-30T13:43:43;17.70;99.90
48988;DHT22;34799;51.440;-2.534;2023-07-30T13:46:10;17.70;99.90
48988;DHT22;34799;51.440;-2.534;2023-07-30T13:48:38;17.70;99.90
48988;DHT22;34799;51.440;-2.534;2023-07-30T13:51:05;17.70;99.90
48988;DHT22;34799;51.440;-2.534;2023-07-30T13:53:33;17.70;99.90
48988;DHT22;34799;51.440;-2.534;2023-07-30T13:56:01;17.60;99.90
48988;DHT22;34799;51.440;-2.534;2023-07-30T13:58:28;17.60;99.90
48988;DHT22;34799;51.440;-2.534;2023-07-30T14:00:55;17.60;99.90
48988;DHT22;34799;51.440;-2.534;2023-07-30T14:03:23;17.60;99.90
48988;DHT22;34799;51.440;-2.534;2023-07-30T14:05:50;17.50;99.90
48988;DHT22;34799;51.440;-2.534;2023-07-30T14:08:18;17.50;99.90
48988;DHT22;34799;51.440;-2.534;2023-07-30T14:10:45;17.50;99.90
48988;DHT22;34799;51.440;-2.534;2023-07-30T14:13:12;17.40;99.90
48988;DHT22;34799;51.440;-2.534;2023-07-30T14:15:40;17.30;99.90
48988;DHT22;34799;51.440;-2.534;2023-07-30T14:18:09;17.30;99.90
48988;DHT22;34799;51.440;-2.534;2023-07-30T14:20:37;17.30;99.90
48988;DHT22;34799;51.440;-2.534;2023-07-30T14:23:04;17.30;99.90
48988;DHT22;34799;51.440;-2.534;2023-07-30T14:25:32;17.30;99.90
48988;DHT22;34799;51.440;-2.534;2023-07-30T14:27:59;17.30;99.90
48988;DHT22;34799;51.440;-2.534;2023-07-30T14:30:26;17.40;99.90
48988;DHT22;34799;51.440;-2.534;2023-07-30T14:32:53;17.40;99.90
48988;DHT22;34799;51.440;-2.534;2023-07-30T14:35:20;17.40;99.90
48988;DHT22;34799;51.440;-2.534;2023-07-30T14:37:47;17.40;99.90
48988;DHT22;34799;51.440;-2.534;2023-07-30T14:40:15;17.60;99.90
48988;DHT22;34799;51.440;-2.534;2023-07-30T14:42:43;17.70;99.90
48988;DHT22;34799;51.440;-2.534;2023-07-30T14:45:10;17.70;99.90
48988;DHT22;34799;51.440;-2.534;2023-07-30T14:47:37;17.70;99.90
48988;DHT22;34799;51.440;-2.534;2023-07-30T14:50:06;17.70;99.90
48988;DHT22;34799;51.440;-2.534;2023-07-30T14:52:33;17.70;99.90
48988;DHT22;34799;51.440;-2.534;2023-07-30T14:55:00;17.70;99.90
48988;DHT22;34799;51.440;-2.534;2023-07-30T14:57:28;17.60;99.90
48988;DHT22;34799;51.440;-2.534;2023-07-30T14:59:55;17.70;99.90
48988;DHT22;34799;51.440;-2.534;2023-07-30T15:02:22;17.60;99.90
48988;DHT22;34799;51.440;-2.534;2023-07-30T15:04:49;17.70;99.90
48988;DHT22;34799;51.440;-2.534;2023-07-30T15:07:16;17.60;99.90
48988;DHT22;34799;51.440;-2.534;2023-07-30T15:09:43;17.60;99.90
48988;DHT22;34799;51.440;-2.534;2023-07-30T15:12:12;17.60;99.90
48988;DHT22;34799;51.440;-2.534;2023-07-30T15:14:41;17.60;99.90
48988;DHT22;34799;51.440;-2.534;2023-07-30T15:17:08;17.70;99.90
48988;DHT22;34799;51.440;-2.534;2023-07-30T15:19:35;17.60;99.90
48988;DHT22;34799;51.440;-2.534;2023-07-30T15:22:02;17.70;99.90
48988;DHT22;34799;51.440;-2.534;2023-07-30T15:24:29;17.70;99.90
48988;DHT22;34799;51.440;-2.534;2023-07-30T15:26:56;17.70;99.90
48988;DHT22;34799;51.440;-2.534;2023-07-30T15:29:23;17.70;99.90
48988;DHT22;34799;51.440;-2.534;2023-07-30T15:31:51;17.80;99.90
48988;DHT22;34799;51.440;-2.534;2023-07-30T15:34:18;17.80;99.90
48988;DHT22;34799;51.440;-2.534;2023-07-30T15:36:45;17.80;99.90
48988;DHT22;34799;51.440;-2.534;2023-07-30T15:39:12;17.80;99.90